Time;durP1;ratioP1;P1;durP2;ratioP2;P2;SDS_P1;SDS_P2;PMS_P1;PMS_P2;Temp;Humidity;BMP_temperature;BMP_pressure;BME280_temperature;BME280_humidity;BME280_pressure;Samples;Min_cycle;Max_cycle;Signal;HPM_P1;HPM_P2
2023/05/06 00:02:07;;;;;;;;;;;20.20;71.70;;;;;;5058398;28;20210;-89
2023/05/06 00:04:32;;;;;;;;;;;20.10;71.70;;;;;;5059184;28;19973;-89
2023/05/06 00:06:58;;;;;;;;;;;20.10;71.60;;;;;;5059862;28;19916;-89
2023/05/06 00:09:24;;;;;;;;;;;20.10;71.70;;;;;;5058720;28;19908;-89
2023/05/06 00:11:50;;;;;;;;;;;20.10;71.70;;;;;;5059645;28;20007;-89
2023/05/06 00:14:16;;;;;;;;;;;20.00;71.60;;;;;;5058331;28;20246;-89
2023/05/06 00:16:41;;;;;;;;;;;20.00;71.60;;;;;;5057577;28;20060;-89
2023/05/06 00:19:07;;;;;;;;;;;20.00;71.60;;;;;;5075421;28;20321;-89
2023/05/06 00:21:32;;;;;;;;;;;20.00;71.60;;;;;;5076021;28;19948;-89
2023/05/06 00:23:58;;;;;;;;;;;20.10;71.70;;;;;;5058742;28;19908;-89
2023/05/06 00:26:23;;;;;;;;;;;20.00;71.60;;;;;;5057694;28;19912;-89
2023/05/06 00:28:49;;;;;;;;;;;20.00;71.60;;;;;;5056723;28;20206;-90
2023/05/06 00:31:15;;;;;;;;;;;20.00;71.60;;;;;;5057869;28;20186;-89
2023/05/06 00:33:40;;;;;;;;;;;20.00;71.70;;;;;;5074396;28;20194;-89
2023/05/06 00:36:06;;;;;;;;;;;20.00;71.70;;;;;;5074811;28;19908;-89
2023/05/06 00:38:32;;;;;;;;;;;20.00;71.60;;;;;;5056159;28;19919;-89
2023/05/06 00:40:57;;;;;;;;;;;19.90;71.50;;;;;;5072188;28;20405;-89
2023/05/06 00:43:23;;;;;;;;;;;20.00;71.50;;;;;;5057661;28;19915;-89
2023/05/06 00:45:49;;;;;;;;;;;20.00;71.50;;;;;;5058011;28;19912;-89
2023/05/06 00:48:15;;;;;;;;;;;19.90;71.40;;;;;;5059017;28;19909;-89
2023/05/06 00:50:41;;;;;;;;;;;19.90;71.40;;;;;;5058930;28;19919;-89
2023/05/06 00:53:07;;;;;;;;;;;19.90;71.40;;;;;;5058690;28;19973;-89
2023/05/06 00:55:33;;;;;;;;;;;19.90;71.50;;;;;;5059294;28;20363;-89
2023/05/06 00:57:59;;;;;;;;;;;19.90;71.40;;;;;;5065320;28;20159;-89
2023/05/06 01:00:25;;;;;;;;;;;19.90;71.40;;;;;;5058348;28;19908;-89
2023/05/06 01:02:51;;;;;;;;;;;19.90;71.50;;;;;;5058161;28;19909;-89
2023/05/06 01:05:18;;;;;;;;;;;19.90;71.50;;;;;;5056146;28;19912;-88
2023/05/06 01:07:46;;;;;;;;;;;19.80;71.50;;;;;;5074006;28;19909;-89
2023/05/06 01:10:23;;;;;;;;;;;19.80;71.50;;;;;;5057217;28;19996;-89
2023/05/06 01:12:52;;;;;;;;;;;19.80;71.50;;;;;;5056650;28;19909;-88
2023/05/06 01:15:24;;;;;;;;;;;19.80;71.50;;;;;;5056001;28;19923;-89
2023/05/06 01:17:52;;;;;;;;;;;19.80;71.50;;;;;;5057189;28;19908;-89
2023/05/06 01:20:20;;;;;;;;;;;19.80;71.50;;;;;;5057073;28;19927;-89
2023/05/06 01:22:45;;;;;;;;;;;19.80;71.50;;;;;;5055077;28;19908;-89
2023/05/06 01:25:21;;;;;;;;;;;19.80;71.50;;;;;;5057379;28;19927;-89
2023/05/06 01:27:46;;;;;;;;;;;19.80;71.50;;;;;;5055805;28;19908;-89
2023/05/06 01:30:14;;;;;;;;;;;19.70;71.50;;;;;;5058062;28;20022;-89
2023/05/06 01:33:00;;;;;;;;;;;19.70;71.50;;;;;;5060482;28;20263;-89
2023/05/06 01:35:31;;;;;;;;;;;19.70;71.50;;;;;;5059173;28;19993;-89
2023/05/06 01:38:36;;;;;;;;;;;19.70;71.50;;;;;;5060180;28;19951;-89
2023/05/06 01:41:02;;;;;;;;;;;19.70;71.60;;;;;;4976206;28;19941;-89
2023/05/06 01:43:29;;;;;;;;;;;19.70;71.50;;;;;;4962038;28;19910;-90
2023/05/06 01:45:54;;;;;;;;;;;19.70;71.60;;;;;;5009065;28;20182;-89
2023/05/06 01:48:29;;;;;;;;;;;19.70;71.60;;;;;;5061791;28;20006;-89
2023/05/06 01:50:54;;;;;;;;;;;19.60;71.50;;;;;;5079406;28;19919;-89
2023/05/06 01:53:20;;;;;;;;;;;19.60;71.40;;;;;;5061597;28;19916;-90
2023/05/06 01:55:47;;;;;;;;;;;19.60;71.50;;;;;;5075973;28;19914;-90
2023/05/06 01:58:13;;;;;;;;;;;19.60;71.50;;;;;;5059553;28;19944;-89
2023/05/06 02:00:39;;;;;;;;;;;19.60;71.50;;;;;;5060346;28;19948;-89
2023/05/06 02:03:05;;;;;;;;;;;19.60;71.50;;;;;;5060925;28;19909;-89
2023/05/06 02:05:30;;;;;;;;;;;19.60;71.50;;;;;;5059209;28;19982;-89
2023/05/06 02:07:56;;;;;;;;;;;19.60;71.40;;;;;;5060124;28;20003;-89
2023/05/06 02:10:21;;;;;;;;;;;19.60;71.50;;;;;;5058629;28;19916;-89
2023/05/06 02:12:47;;;;;;;;;;;19.50;71.50;;;;;;5059048;28;19908;-89
2023/05/06 02:15:14;;;;;;;;;;;19.50;71.50;;;;;;5056756;28;20160;-88
2023/05/06 02:17:40;;;;;;;;;;;19.50;71.50;;;;;;5059342;28;20257;-88
2023/05/06 02:20:06;;;;;;;;;;;19.50;71.50;;;;;;5077034;28;19928;-89
2023/05/06 02:22:32;;;;;;;;;;;19.50;71.60;;;;;;5060235;28;19919;-89
2023/05/06 02:24:57;;;;;;;;;;;19.50;71.60;;;;;;5059385;28;19908;-89
2023/05/06 02:27:23;;;;;;;;;;;19.50;71.60;;;;;;5058562;28;19908;-89
2023/05/06 02:29:48;;;;;;;;;;;19.50;71.70;;;;;;5077165;28;19994;-89
2023/05/06 02:32:14;;;;;;;;;;;19.50;71.60;;;;;;5076466;28;19909;-89
2023/05/06 02:34:40;;;;;;;;;;;19.40;71.60;;;;;;5059633;28;19939;-89
2023/05/06 02:37:05;;;;;;;;;;;19.40;71.60;;;;;;5059861;28;19908;-89
2023/05/06 02:39:31;;;;;;;;;;;19.40;71.60;;;;;;5059849;28;19908;-89
2023/05/06 02:41:57;;;;;;;;;;;19.40;71.60;;;;;;5059160;28;19919;-89
2023/05/06 02:44:23;;;;;;;;;;;19.40;71.60;;;;;;5060190;28;19908;-89
2023/05/06 02:46:49;;;;;;;;;;;19.40;71.60;;;;;;5058395;28;19962;-89
2023/05/06 02:49:14;;;;;;;;;;;19.40;71.60;;;;;;5077360;28;19943;-89
2023/05/06 02:51:41;;;;;;;;;;;19.40;71.70;;;;;;5061816;28;19908;-89
2023/05/06 02:54:07;;;;;;;;;;;19.40;71.80;;;;;;5061889;28;19952;-89
2023/05/06 02:56:33;;;;;;;;;;;19.30;71.70;;;;;;5061308;28;20272;-89
2023/05/06 02:58:59;;;;;;;;;;;19.30;71.70;;;;;;5079246;28;20194;-89
2023/05/06 03:01:25;;;;;;;;;;;19.30;71.70;;;;;;5078598;28;20297;-89
2023/05/06 03:03:50;;;;;;;;;;;19.30;71.70;;;;;;5060659;28;19952;-89
2023/05/06 03:06:16;;;;;;;;;;;19.30;71.70;;;;;;5060078;28;19917;-89
2023/05/06 03:08:42;;;;;;;;;;;19.30;71.80;;;;;;5060733;28;20236;-89
2023/05/06 03:11:08;;;;;;;;;;;19.30;71.80;;;;;;5077747;28;20330;-89
2023/05/06 03:13:33;;;;;;;;;;;19.30;71.80;;;;;;5060854;28;19913;-89
2023/05/06 03:15:59;;;;;;;;;;;19.20;71.80;;;;;;5060023;28;19934;-89
2023/05/06 03:18:24;;;;;;;;;;;19.20;71.80;;;;;;5060470;28;19919;-89
2023/05/06 03:20:50;;;;;;;;;;;19.20;71.90;;;;;;5059930;28;19908;-88
2023/05/06 03:23:15;;;;;;;;;;;19.20;71.80;;;;;;5059359;28;19908;-88
2023/05/06 03:25:41;;;;;;;;;;;19.20;71.80;;;;;;5058379;28;19912;-88
2023/05/06 03:28:07;;;;;;;;;;;19.20;71.80;;;;;;5060491;28;19960;-89
2023/05/06 03:30:32;;;;;;;;;;;19.20;71.70;;;;;;5077421;28;19908;-88
2023/05/06 03:33:01;;;;;;;;;;;19.20;71.80;;;;;;5060548;28;19908;-88
2023/05/06 03:35:27;;;;;;;;;;;19.20;71.80;;;;;;5060654;28;19947;-89
2023/05/06 03:37:52;;;;;;;;;;;19.10;71.70;;;;;;5060070;28;19917;-89
2023/05/06 03:40:18;;;;;;;;;;;19.10;71.70;;;;;;5059534;28;19977;-89
2023/05/06 03:42:44;;;;;;;;;;;19.10;71.70;;;;;;5059561;28;19909;-89
2023/05/06 03:45:10;;;;;;;;;;;19.10;71.70;;;;;;5077448;28;20199;-89
2023/05/06 03:47:35;;;;;;;;;;;19.10;71.70;;;;;;5060408;28;19909;-89
2023/05/06 03:50:01;;;;;;;;;;;19.10;71.70;;;;;;5059078;28;20107;-89
2023/05/06 03:52:27;;;;;;;;;;;19.10;71.70;;;;;;5060048;28;20009;-88
2023/05/06 03:54:53;;;;;;;;;;;19.10;71.70;;;;;;5059426;28;19908;-89
2023/05/06 03:57:20;;;;;;;;;;;19.10;71.70;;;;;;5058674;28;20315;-89
2023/05/06 03:59:46;;;;;;;;;;;19.10;71.70;;;;;;5059634;28;19908;-89
2023/05/06 04:02:11;;;;;;;;;;;19.10;71.70;;;;;;5059006;28;19909;-89
2023/05/06 04:04:37;;;;;;;;;;;19.10;71.70;;;;;;5059203;28;19908;-89
2023/05/06 04:07:03;;;;;;;;;;;19.10;71.60;;;;;;5057451;28;19913;-89
2023/05/06 04:09:30;;;;;;;;;;;19.10;71.60;;;;;;5057423;28;19908;-88
2023/05/06 04:11:55;;;;;;;;;;;19.00;71.50;;;;;;5055965;28;19954;-88
2023/05/06 04:14:21;;;;;;;;;;;19.00;71.50;;;;;;5057441;28;19948;-88
2023/05/06 04:16:47;;;;;;;;;;;19.00;71.50;;;;;;5057264;28;19909;-88
2023/05/06 04:19:13;;;;;;;;;;;19.00;71.50;;;;;;5056837;28;19950;-88
2023/05/06 04:21:38;;;;;;;;;;;19.00;71.40;;;;;;5056635;28;19912;-88
2023/05/06 04:24:04;;;;;;;;;;;19.00;71.40;;;;;;5055630;28;19909;-88
2023/05/06 04:26:30;;;;;;;;;;;19.00;71.40;;;;;;5055785;28;19924;-88
2023/05/06 04:28:55;;;;;;;;;;;19.00;71.30;;;;;;5057376;28;19908;-88
2023/05/06 04:31:22;;;;;;;;;;;19.00;71.30;;;;;;5058138;28;20089;-88
2023/05/06 04:33:48;;;;;;;;;;;19.00;71.20;;;;;;5063796;28;19908;-89
2023/05/06 04:36:13;;;;;;;;;;;19.00;71.20;;;;;;5057816;28;20205;-88
2023/05/06 04:38:39;;;;;;;;;;;19.00;71.10;;;;;;5055902;28;19908;-88
2023/05/06 04:41:04;;;;;;;;;;;19.00;71.00;;;;;;5073061;28;20202;-89
2023/05/06 04:43:31;;;;;;;;;;;19.00;70.90;;;;;;5054974;28;20182;-88
2023/05/06 04:45:57;;;;;;;;;;;19.10;70.80;;;;;;5055254;28;20297;-88
2023/05/06 04:48:22;;;;;;;;;;;19.10;70.70;;;;;;5056387;28;20274;-88
2023/05/06 04:50:49;;;;;;;;;;;19.10;70.60;;;;;;5056232;28;20263;-88
2023/05/06 04:53:14;;;;;;;;;;;19.10;70.60;;;;;;5056404;28;19937;-88
2023/05/06 04:55:40;;;;;;;;;;;19.10;70.50;;;;;;5057906;28;19969;-88
2023/05/06 04:58:06;;;;;;;;;;;19.10;70.40;;;;;;5075153;28;19912;-88
2023/05/06 05:00:32;;;;;;;;;;;19.10;70.30;;;;;;5057510;28;19931;-89
2023/05/06 05:02:57;;;;;;;;;;;19.20;70.30;;;;;;5074398;28;19997;-89
2023/05/06 05:05:24;;;;;;;;;;;19.10;70.20;;;;;;5055588;28;19935;-89
2023/05/06 05:07:49;;;;;;;;;;;19.20;70.10;;;;;;5055383;28;19924;-88
2023/05/06 05:10:15;;;;;;;;;;;19.20;70.00;;;;;;5056091;28;20295;-89
2023/05/06 05:12:40;;;;;;;;;;;19.20;69.80;;;;;;5056727;28;19919;-89
2023/05/06 05:15:06;;;;;;;;;;;19.20;69.60;;;;;;5073777;28;20159;-89
2023/05/06 05:17:32;;;;;;;;;;;19.30;69.40;;;;;;5055743;28;19919;-89
2023/05/06 05:19:57;;;;;;;;;;;19.30;69.10;;;;;;5055971;28;19917;-89
2023/05/06 05:22:23;;;;;;;;;;;19.40;68.70;;;;;;5056306;28;20187;-89
2023/05/06 05:24:48;;;;;;;;;;;19.40;68.30;;;;;;5055911;28;19913;-89
2023/05/06 05:27:14;;;;;;;;;;;19.50;68.10;;;;;;5056462;28;20157;-89
2023/05/06 05:29:40;;;;;;;;;;;19.50;67.60;;;;;;5055117;28;20397;-89
2023/05/06 05:32:05;;;;;;;;;;;19.60;67.50;;;;;;5055550;28;19908;-88
2023/05/06 05:34:31;;;;;;;;;;;19.70;67.10;;;;;;5053829;28;20248;-88
2023/05/06 05:36:57;;;;;;;;;;;19.80;66.60;;;;;;5053655;28;19986;-88
2023/05/06 05:39:22;;;;;;;;;;;19.90;66.20;;;;;;5054085;28;19916;-89
2023/05/06 05:41:48;;;;;;;;;;;20.00;65.50;;;;;;5053354;28;19940;-89
2023/05/06 05:44:13;;;;;;;;;;;20.10;65.00;;;;;;5054268;28;19935;-89
2023/05/06 05:46:39;;;;;;;;;;;20.20;64.50;;;;;;5071997;28;19951;-89
2023/05/06 05:49:05;;;;;;;;;;;20.20;64.00;;;;;;5054531;28;20201;-88
2023/05/06 05:51:31;;;;;;;;;;;20.30;63.60;;;;;;5054379;28;19944;-88
2023/05/06 05:53:57;;;;;;;;;;;20.40;63.20;;;;;;5055168;28;19909;-88
2023/05/06 05:56:22;;;;;;;;;;;20.50;62.80;;;;;;5055396;28;19908;-88
2023/05/06 05:58:48;;;;;;;;;;;20.50;62.30;;;;;;5054246;28;20209;-88
2023/05/06 06:01:13;;;;;;;;;;;20.60;61.80;;;;;;5054821;28;20204;-88
2023/05/06 06:03:39;;;;;;;;;;;20.70;61.30;;;;;;5054273;28;19972;-89
2023/05/06 06:06:05;;;;;;;;;;;20.80;60.80;;;;;;5072746;28;19923;-89
2023/05/06 06:08:32;;;;;;;;;;;20.90;60.50;;;;;;5055965;28;19908;-89
2023/05/06 06:10:57;;;;;;;;;;;21.00;59.90;;;;;;5053451;28;20286;-89
2023/05/06 06:13:23;;;;;;;;;;;21.10;59.80;;;;;;5053923;28;19909;-89
2023/05/06 06:15:49;;;;;;;;;;;21.10;59.40;;;;;;5054151;28;20202;-89
2023/05/06 06:18:15;;;;;;;;;;;21.20;59.20;;;;;;5054782;28;20279;-89
2023/05/06 06:20:40;;;;;;;;;;;21.30;59.00;;;;;;5055370;28;19923;-88
2023/05/06 06:23:06;;;;;;;;;;;21.40;58.70;;;;;;5057740;28;20105;-89
2023/05/06 06:25:31;;;;;;;;;;;21.50;58.40;;;;;;5076177;28;19912;-89
2023/05/06 06:27:57;;;;;;;;;;;21.60;58.10;;;;;;5075238;28;20171;-88
2023/05/06 06:30:23;;;;;;;;;;;21.70;57.90;;;;;;5057788;28;19923;-88
2023/05/06 06:32:49;;;;;;;;;;;21.80;57.60;;;;;;5058316;28;20296;-88
2023/05/06 06:35:15;;;;;;;;;;;22.00;57.30;;;;;;5055607;28;19916;-89
2023/05/06 06:37:41;;;;;;;;;;;22.20;57.00;;;;;;5056501;28;19909;-89
2023/05/06 06:40:07;;;;;;;;;;;22.50;56.80;;;;;;5072548;28;19940;-88
2023/05/06 06:42:33;;;;;;;;;;;22.80;56.30;;;;;;5055780;28;19920;-88
2023/05/06 06:44:58;;;;;;;;;;;23.10;55.90;;;;;;5056461;28;19917;-89
2023/05/06 06:47:24;;;;;;;;;;;23.40;55.30;;;;;;5056473;28;19943;-89
2023/05/06 06:49:50;;;;;;;;;;;23.70;54.80;;;;;;5054843;28;20218;-88
2023/05/06 06:52:16;;;;;;;;;;;24.00;54.20;;;;;;5070995;28;19920;-89
2023/05/06 06:54:42;;;;;;;;;;;24.40;53.70;;;;;;5052151;28;19917;-88
2023/05/06 06:57:08;;;;;;;;;;;24.80;53.20;;;;;;5052002;28;20155;-88
2023/05/06 06:59:33;;;;;;;;;;;25.00;52.70;;;;;;5054400;28;19909;-88
2023/05/06 07:01:59;;;;;;;;;;;25.20;52.30;;;;;;5053877;28;20155;-88
2023/05/06 07:04:25;;;;;;;;;;;25.50;52.00;;;;;;5053672;28;19915;-88
2023/05/06 07:06:50;;;;;;;;;;;25.70;51.60;;;;;;5054192;28;20163;-89
2023/05/06 07:09:16;;;;;;;;;;;26.00;51.20;;;;;;5053133;28;19919;-89
2023/05/06 07:11:42;;;;;;;;;;;26.30;50.80;;;;;;5070803;28;19919;-89
2023/05/06 07:14:07;;;;;;;;;;;26.50;50.50;;;;;;5053865;28;20153;-89
2023/05/06 07:16:33;;;;;;;;;;;26.70;50.20;;;;;;5055195;28;20258;-87
2023/05/06 07:18:59;;;;;;;;;;;26.90;49.90;;;;;;5054743;28;20372;-87
2023/05/06 07:21:25;;;;;;;;;;;27.00;49.80;;;;;;5074445;28;20187;-87
2023/05/06 07:23:51;;;;;;;;;;;27.30;49.60;;;;;;5053677;28;19916;-86
2023/05/06 07:26:17;;;;;;;;;;;27.40;49.20;;;;;;5071822;28;19913;-87
2023/05/06 07:28:43;;;;;;;;;;;27.60;49.00;;;;;;5050859;28;19941;-87
2023/05/06 07:31:08;;;;;;;;;;;27.80;48.80;;;;;;5052803;28;20329;-87
2023/05/06 07:33:34;;;;;;;;;;;28.10;48.60;;;;;;5054142;28;19930;-87
2023/05/06 07:36:00;;;;;;;;;;;28.30;48.40;;;;;;5054146;28;19908;-87
2023/05/06 07:38:25;;;;;;;;;;;28.50;48.50;;;;;;5054771;28;19990;-87
2023/05/06 07:40:51;;;;;;;;;;;28.60;47.90;;;;;;5052703;28;20216;-86
2023/05/06 07:43:17;;;;;;;;;;;28.80;47.60;;;;;;5054385;28;19908;-87
2023/05/06 07:45:43;;;;;;;;;;;29.10;47.40;;;;;;5072805;28;20266;-87
2023/05/06 07:48:08;;;;;;;;;;;29.20;47.20;;;;;;5053426;28;19908;-87
2023/05/06 07:50:34;;;;;;;;;;;29.40;46.90;;;;;;5074369;28;19947;-88
2023/05/06 07:53:00;;;;;;;;;;;29.60;46.70;;;;;;5054781;28;19924;-87
2023/05/06 07:55:27;;;;;;;;;;;29.90;46.60;;;;;;5053991;28;20008;-87
2023/05/06 07:57:52;;;;;;;;;;;30.00;46.40;;;;;;5053863;28;19920;-87
2023/05/06 08:00:18;;;;;;;;;;;30.20;46.20;;;;;;5070797;28;19909;-87
2023/05/06 08:02:45;;;;;;;;;;;30.40;46.00;;;;;;5060576;28;20084;-88
2023/05/06 08:05:11;;;;;;;;;;;30.50;45.70;;;;;;5053072;28;19909;-87
2023/05/06 08:07:36;;;;;;;;;;;30.70;45.60;;;;;;5068331;28;19909;-87
2023/05/06 08:10:03;;;;;;;;;;;30.80;45.40;;;;;;5067948;28;20317;-87
2023/05/06 08:12:29;;;;;;;;;;;31.00;45.30;;;;;;5052904;28;19909;-87
2023/05/06 08:14:55;;;;;;;;;;;30.20;45.60;;;;;;5051185;28;20149;-87
2023/05/06 08:17:20;;;;;;;;;;;30.60;45.70;;;;;;5071639;28;20222;-87
2023/05/06 08:19:46;;;;;;;;;;;29.50;45.70;;;;;;5053400;28;20066;-87
2023/05/06 08:22:11;;;;;;;;;;;29.90;46.20;;;;;;5051294;28;19951;-87
2023/05/06 08:24:37;;;;;;;;;;;29.30;46.10;;;;;;5050647;28;19936;-87
2023/05/06 08:27:03;;;;;;;;;;;28.50;46.70;;;;;;5050743;28;19923;-87
2023/05/06 08:29:28;;;;;;;;;;;28.00;47.10;;;;;;5067655;28;20062;-87
2023/05/06 08:31:54;;;;;;;;;;;27.60;47.60;;;;;;5068289;28;19917;-87
2023/05/06 08:34:20;;;;;;;;;;;28.00;48.10;;;;;;5053556;28;19939;-88
2023/05/06 08:36:47;;;;;;;;;;;29.00;47.50;;;;;;5048483;28;19991;-89
2023/05/06 08:39:13;;;;;;;;;;;29.80;47.10;;;;;;5063180;28;19908;-89
2023/05/06 08:41:39;;;;;;;;;;;30.30;46.50;;;;;;5050961;28;20080;-89
2023/05/06 08:44:06;;;;;;;;;;;30.80;46.10;;;;;;5049120;28;20147;-89
2023/05/06 08:46:32;;;;;;;;;;;30.70;45.80;;;;;;5048439;28;19920;-89
2023/05/06 08:48:58;;;;;;;;;;;30.40;46.10;;;;;;5048314;28;19915;-89
2023/05/06 08:51:27;;;;;;;;;;;30.70;45.90;;;;;;5049229;28;19920;-89
2023/05/06 08:53:53;;;;;;;;;;;30.20;45.90;;;;;;5067559;28;19970;-90
2023/05/06 08:56:20;;;;;;;;;;;30.80;46.00;;;;;;5050383;28;19915;-89
2023/05/06 08:58:47;;;;;;;;;;;29.60;46.20;;;;;;5067553;28;19916;-89
2023/05/06 09:01:13;;;;;;;;;;;28.70;46.80;;;;;;5050106;28;20302;-89
2023/05/06 09:03:39;;;;;;;;;;;29.00;47.60;;;;;;5067392;28;20192;-89
2023/05/06 09:06:05;;;;;;;;;;;29.70;47.30;;;;;;5050462;28;19970;-90
2023/05/06 09:08:30;;;;;;;;;;;30.20;46.90;;;;;;5050217;28;19917;-90
2023/05/06 09:10:56;;;;;;;;;;;30.50;46.60;;;;;;5067986;28;20336;-90
2023/05/06 09:13:21;;;;;;;;;;;31.00;46.40;;;;;;5051878;28;20290;-90
2023/05/06 09:15:48;;;;;;;;;;;31.40;46.10;;;;;;5050118;28;20206;-90
2023/05/06 09:18:16;;;;;;;;;;;31.60;45.70;;;;;;5069256;28;20237;-88
2023/05/06 09:20:46;;;;;;;;;;;31.90;45.60;;;;;;5051962;28;19947;-87
2023/05/06 09:23:13;;;;;;;;;;;32.00;45.20;;;;;;5051337;28;20062;-87
2023/05/06 09:25:39;;;;;;;;;;;32.00;45.20;;;;;;5068490;28;19948;-87
2023/05/06 09:28:05;;;;;;;;;;;31.80;45.00;;;;;;5049743;28;19908;-87
2023/05/06 09:30:31;;;;;;;;;;;30.50;45.60;;;;;;5052035;28;20337;-88
2023/05/06 09:32:58;;;;;;;;;;;29.40;46.40;;;;;;5050578;28;20170;-88
2023/05/06 09:35:27;;;;;;;;;;;28.70;47.20;;;;;;5065754;28;20270;-88
2023/05/06 09:37:53;;;;;;;;;;;28.80;47.80;;;;;;5048997;28;19909;-88
2023/05/06 09:40:21;;;;;;;;;;;29.70;47.40;;;;;;5048937;28;20313;-88
2023/05/06 09:42:49;;;;;;;;;;;30.40;46.80;;;;;;5050393;28;20023;-88
2023/05/06 09:45:16;;;;;;;;;;;29.80;46.80;;;;;;5049810;28;20278;-88
2023/05/06 09:47:41;;;;;;;;;;;30.20;47.10;;;;;;5046215;28;19920;-89
2023/05/06 09:50:07;;;;;;;;;;;30.80;46.50;;;;;;5047859;28;19912;-88
2023/05/06 09:52:33;;;;;;;;;;;31.10;46.20;;;;;;5053364;28;19909;-88
2023/05/06 09:55:00;;;;;;;;;;;31.50;46.00;;;;;;5075334;28;20190;-89
2023/05/06 09:57:29;;;;;;;;;;;31.00;45.80;;;;;;5061386;28;19908;-88
2023/05/06 09:59:56;;;;;;;;;;;30.60;46.30;;;;;;5054739;28;19948;-88
2023/05/06 10:02:22;;;;;;;;;;;29.70;46.70;;;;;;5050210;28;20254;-87
2023/05/06 10:04:48;;;;;;;;;;;29.40;47.40;;;;;;5067669;28;19919;-88
2023/05/06 10:07:15;;;;;;;;;;;28.70;47.60;;;;;;5053797;28;19912;-88
2023/05/06 10:09:42;;;;;;;;;;;28.20;48.60;;;;;;5054809;28;19909;-89
2023/05/06 10:12:08;;;;;;;;;;;27.80;49.00;;;;;;5053949;28;19908;-88
2023/05/06 10:14:37;;;;;;;;;;;27.50;49.20;;;;;;5054738;28;19920;-89
2023/05/06 10:17:07;;;;;;;;;;;27.30;49.30;;;;;;5054325;28;19912;-88
2023/05/06 10:19:33;;;;;;;;;;;27.10;49.90;;;;;;5053473;28;20192;-88
2023/05/06 10:22:07;;;;;;;;;;;26.80;50.20;;;;;;5049709;28;19930;-88
2023/05/06 10:24:38;;;;;;;;;;;26.60;50.20;;;;;;5052416;28;20201;-88
2023/05/06 10:27:04;;;;;;;;;;;26.40;50.50;;;;;;5053165;28;19920;-88
2023/05/06 10:29:30;;;;;;;;;;;26.30;50.70;;;;;;5070379;28;19943;-89
2023/05/06 10:31:56;;;;;;;;;;;26.20;50.80;;;;;;5070415;28;20203;-89
2023/05/06 10:34:23;;;;;;;;;;;26.10;50.90;;;;;;5052307;28;20200;-87
2023/05/06 10:36:56;;;;;;;;;;;26.00;51.00;;;;;;5070808;28;20266;-88
2023/05/06 10:39:22;;;;;;;;;;;26.00;51.00;;;;;;5053089;28;19909;-88
2023/05/06 10:41:47;;;;;;;;;;;25.90;51.20;;;;;;5052114;28;19909;-87
2023/05/06 10:44:13;;;;;;;;;;;25.90;51.20;;;;;;5052366;28;19967;-88
2023/05/06 10:47:11;;;;;;;;;;;25.90;51.30;;;;;;5053580;28;20298;-87
2023/05/06 10:49:37;;;;;;;;;;;25.90;51.30;;;;;;5017022;28;20293;-88
2023/05/06 10:52:10;;;;;;;;;;;25.90;51.50;;;;;;5053762;28;19905;-89
2023/05/06 10:54:47;;;;;;;;;;;25.80;51.50;;;;;;5053262;28;20297;-90
2023/05/06 10:57:13;;;;;;;;;;;25.80;51.50;;;;;;5050699;28;20366;-90
2023/05/06 10:59:43;;;;;;;;;;;25.80;51.70;;;;;;5051863;28;20112;-90
2023/05/06 11:02:09;;;;;;;;;;;25.70;51.70;;;;;;5051615;28;20336;-89
2023/05/06 11:04:36;;;;;;;;;;;25.70;51.80;;;;;;5050895;28;19947;-90
2023/05/06 11:07:12;;;;;;;;;;;25.70;52.00;;;;;;5049582;28;19923;-90
2023/05/06 11:10:07;;;;;;;;;;;25.60;52.10;;;;;;5050835;28;19908;-90
2023/05/06 11:12:43;;;;;;;;;;;25.50;52.50;;;;;;5026098;28;19915;-90
2023/05/06 11:15:18;;;;;;;;;;;25.40;52.20;;;;;;5050492;28;20274;-90
2023/05/06 11:17:44;;;;;;;;;;;25.40;52.30;;;;;;5057782;28;19916;-90
2023/05/06 11:20:24;;;;;;;;;;;25.40;52.40;;;;;;5047054;28;20199;-90
2023/05/06 11:22:50;;;;;;;;;;;25.40;52.60;;;;;;5051428;28;20019;-90
2023/05/06 11:25:34;;;;;;;;;;;25.30;52.60;;;;;;5065392;28;20216;-89
2023/05/06 11:28:00;;;;;;;;;;;25.30;52.60;;;;;;5050999;28;19920;-88
2023/05/06 11:30:26;;;;;;;;;;;25.30;52.80;;;;;;5047837;28;19993;-89
2023/05/06 11:32:52;;;;;;;;;;;25.20;52.80;;;;;;5047449;28;19909;-88
2023/05/06 11:38:01;;;;;;;;;;;25.10;53.00;;;;;;5094645;28;19924;-17
2023/05/06 11:40:30;;;;;;;;;;;25.10;53.10;;;;;;5097434;28;19919;-16
2023/05/06 11:43:08;;;;;;;;;;;25.10;53.10;;;;;;5091950;28;19965;-16
2023/05/06 11:45:46;;;;;;;;;;;25.20;53.10;;;;;;5084647;28;19908;-16
2023/05/06 11:48:13;;;;;;;;;;;25.20;53.10;;;;;;5085803;28;19999;-16
2023/05/06 11:50:45;;;;;;;;;;;25.20;53.20;;;;;;5087227;28;19920;-15
2023/05/06 11:53:10;;;;;;;;;;;25.20;53.30;;;;;;5086285;28;19913;-15
2023/05/06 11:55:37;;;;;;;;;;;25.20;53.30;;;;;;5089058;28;19918;-16
2023/05/06 11:58:02;;;;;;;;;;;25.10;53.30;;;;;;5094923;28;19912;-14
2023/05/06 12:00:34;;;;;;;;;;;25.10;53.40;;;;;;5096408;28;20282;-16
2023/05/06 12:02:59;;;;;;;;;;;25.10;53.50;;;;;;5078213;28;19912;-14
2023/05/06 12:05:27;;;;;;;;;;;25.10;53.50;;;;;;5097036;28;19919;-14
2023/05/06 12:07:53;;;;;;;;;;;25.10;53.60;;;;;;5096615;28;19912;-16
2023/05/06 12:10:20;;;;;;;;;;;25.10;53.60;;;;;;5092223;28;19912;-16
2023/05/06 12:12:45;;;;;;;;;;;25.10;53.60;;;;;;5096523;28;19908;-16
2023/05/06 12:15:11;;;;;;;;;;;25.10;53.60;;;;;;5097131;28;19961;-15
2023/05/06 12:17:37;;;;;;;;;;;25.10;53.70;;;;;;5090558;28;19944;-14
2023/05/06 12:20:04;;;;;;;;;;;25.00;53.60;;;;;;5075048;28;19990;-16
2023/05/06 12:22:29;;;;;;;;;;;25.00;53.60;;;;;;5087177;28;20006;-13
2023/05/06 12:24:56;;;;;;;;;;;25.10;53.70;;;;;;5091183;28;20007;-14
2023/05/06 12:27:31;;;;;;;;;;;25.00;53.70;;;;;;5095520;28;19958;-15
2023/05/06 12:29:57;;;;;;;;;;;25.10;53.80;;;;;;5095828;28;19908;-14
2023/05/06 12:32:22;;;;;;;;;;;25.10;53.80;;;;;;5096293;28;19912;-17
2023/05/06 12:34:48;;;;;;;;;;;25.10;53.80;;;;;;5078654;28;19919;-17
2023/05/06 12:37:27;;;;;;;;;;;25.10;53.80;;;;;;5078219;28;20011;-17
2023/05/06 12:39:53;;;;;;;;;;;25.10;53.80;;;;;;5095641;28;19908;-15
2023/05/06 12:42:19;;;;;;;;;;;25.10;53.80;;;;;;5088307;28;20139;-16
2023/05/06 12:44:45;;;;;;;;;;;25.10;53.80;;;;;;5084326;28;19915;-16
2023/05/06 12:47:18;;;;;;;;;;;25.10;53.90;;;;;;5085703;28;19915;-15
2023/05/06 12:49:50;;;;;;;;;;;25.10;53.90;;;;;;5083935;28;20339;-17
2023/05/06 12:52:17;;;;;;;;;;;25.10;53.90;;;;;;5083574;28;19908;-15
2023/05/06 12:54:43;;;;;;;;;;;25.10;54.00;;;;;;5062183;28;19919;-12
2023/05/06 12:57:09;;;;;;;;;;;25.10;54.00;;;;;;5084888;28;19908;-16
2023/05/06 12:59:35;;;;;;;;;;;25.10;54.00;;;;;;5065896;28;19957;-15
2023/05/06 13:02:00;;;;;;;;;;;25.10;54.10;;;;;;5081636;28;20238;-18
2023/05/06 13:04:26;;;;;;;;;;;25.20;54.20;;;;;;5083257;28;20004;-16
2023/05/06 13:06:52;;;;;;;;;;;25.20;54.10;;;;;;5084285;28;19977;-16
2023/05/06 13:09:17;;;;;;;;;;;25.20;54.10;;;;;;5083448;28;19908;-17
2023/05/06 13:11:43;;;;;;;;;;;25.20;54.10;;;;;;5084977;28;19908;-18
2023/05/06 13:14:09;;;;;;;;;;;25.20;54.10;;;;;;5084168;28;19908;-16
2023/05/06 13:16:35;;;;;;;;;;;25.20;54.10;;;;;;5085720;28;19908;-17
2023/05/06 13:19:02;;;;;;;;;;;25.20;54.10;;;;;;5084410;28;19977;-16
2023/05/06 13:21:27;;;;;;;;;;;25.20;54.10;;;;;;5086695;28;20005;-16
2023/05/06 13:23:53;;;;;;;;;;;25.20;54.10;;;;;;5085605;28;20022;-14
2023/05/06 13:26:22;;;;;;;;;;;25.20;54.10;;;;;;5088376;28;19923;-16
2023/05/06 13:28:47;;;;;;;;;;;25.20;54.20;;;;;;5090664;28;20182;-15
2023/05/06 13:31:13;;;;;;;;;;;25.20;54.10;;;;;;5075756;22;20102;-16
2023/05/06 13:33:38;;;;;;;;;;;25.20;54.20;;;;;;5069705;28;20033;-17
2023/05/06 13:36:04;;;;;;;;;;;25.20;54.20;;;;;;5068414;28;19909;-15
2023/05/06 13:38:30;;;;;;;;;;;25.20;54.20;;;;;;5070538;28;20427;-17
2023/05/06 13:40:56;;;;;;;;;;;25.20;54.30;;;;;;5070255;28;19919;-18
2023/05/06 13:43:23;;;;;;;;;;;25.20;54.30;;;;;;5069896;28;19912;-16
2023/05/06 13:45:49;;;;;;;;;;;25.20;54.30;;;;;;5068011;28;19938;-16
2023/05/06 13:48:16;;;;;;;;;;;25.20;54.30;;;;;;5069480;28;19915;-16
2023/05/06 13:50:42;;;;;;;;;;;25.20;54.40;;;;;;5084972;28;20163;-18
2023/05/06 13:53:07;;;;;;;;;;;25.20;54.40;;;;;;5070530;28;20346;-15
2023/05/06 13:55:33;;;;;;;;;;;25.20;54.50;;;;;;5070682;28;20097;-17
2023/05/06 13:57:59;;;;;;;;;;;25.20;54.50;;;;;;5069604;28;19916;-16
2023/05/06 14:00:24;;;;;;;;;;;25.20;54.60;;;;;;5069754;28;19916;-16
2023/05/06 14:02:50;;;;;;;;;;;25.20;54.60;;;;;;5069165;28;19919;-17
2023/05/06 14:05:16;;;;;;;;;;;25.20;54.70;;;;;;5069181;28;20327;-19
2023/05/06 14:07:41;;;;;;;;;;;25.20;54.70;;;;;;5070511;28;20020;-16
2023/05/06 14:10:07;;;;;;;;;;;25.20;54.80;;;;;;5069814;28;19908;-16
2023/05/06 14:12:33;;;;;;;;;;;25.20;54.80;;;;;;5085087;28;19908;-17
2023/05/06 14:14:58;;;;;;;;;;;25.20;54.80;;;;;;5068683;28;19919;-17
2023/05/06 14:17:24;;;;;;;;;;;25.20;54.90;;;;;;5067676;28;19908;-18